Latest Weather Observations for Spring Bay

IDT60801

Issued at 6:02 pm EST Monday 25 September 2017 (issued every 30 minutes, with the page automatically refreshed every 10 minutes)

About weather observations | Map of weather stations | Latest weather observations for TAS | Other Formats
Station Details ID: 092133 Name: SPRING BAY NTC AWS Lat: -42.55 Lon: 147.93 Height: 0.0 m
Data from the previous 72 hours. | See also: Recent months for locations in Tasmania
Date/Time
EST
Temp
°C
App
Temp
°C
Dew
Point
°C
Rel
Hum
%
Delta-T
°C
Wind Press
QNH
hPa
Press
MSL
hPa
Rain since
9am
mm
Dir  Spd
km/h
Gust
km/h
Spd
kts
Gust
kts
25/06:00pm 9.0 - - - - - - - - - 1004.6 1004.6 -
25/05:30pm 9.2 - - - - - - - - - 1004.4 1004.4 -
25/05:00pm 9.7 - - - - - - - - - 1003.7 1003.7 -
25/04:30pm 10.1 - - - - - - - - - 1003.3 1003.3 -
25/04:00pm 10.3 - - - - - - - - - 1002.4 1002.4 -
25/03:30pm 10.4 - - - - - - - - - 1002.0 1002.0 -
25/03:00pm 10.7 - - - - - - - - - 1001.4 1001.4 -
25/02:30pm 11.3 - - - - - - - - - 1000.8 1000.8 -
25/02:00pm 12.7 - - - - - - - - - 1000.0 1000.0 -
25/01:30pm 12.6 - - - - - - - - - 999.8 999.8 -
25/01:00pm 12.6 - - - - - - - - - 999.1 999.1 -
25/12:30pm 12.7 - - - - - - - - - 999.1 999.1 -
25/12:00pm 12.6 - - - - - - - - - 998.6 998.6 -
25/11:30am 12.4 - - - - - - - - - 998.0 998.0 -
25/11:00am 12.0 - - - - - - - - - 997.9 997.9 -
25/10:30am 11.9 - - - - - - - - - 997.8 997.8 -
25/10:00am 11.4 - - - - - - - - - 997.7 997.7 -
25/09:30am 11.1 - - - - - - - - - 997.3 997.3 -
25/09:00am 10.9 - - - - - - - - - 997.2 997.2 -
25/08:30am 10.5 - - - - - - - - - 996.9 996.9 -
25/08:00am 10.1 - - - - - - - - - 996.4 996.4 -
25/07:30am 9.8 - - - - - - - - - 996.2 996.2 -
25/07:00am 9.2 - - - - - - - - - 995.8 995.8 -
25/06:30am 9.0 - - - - - - - - - 995.4 995.4 -
25/06:00am 9.0 - - - - - - - - - 995.3 995.3 -
25/05:30am 9.3 - - - - - - - - - 994.7 994.7 -
25/05:00am 9.3 - - - - - - - - - 994.2 994.2 -
25/04:30am 9.7 - - - - - - - - - 993.9 993.9 -
25/04:00am 10.0 - - - - - - - - - 993.3 993.3 -
25/03:30am 10.3 - - - - - - - - - 993.0 993.0 -
25/03:00am 10.6 - - - - - - - - - 992.6 992.6 -
25/02:30am 11.0 - - - - - - - - - 992.1 992.1 -
25/02:00am 11.5 - - - - - - - - - 991.7 991.7 -
25/01:30am 11.6 - - - - - - - - - 991.3 991.3 -
25/01:00am 11.8 - - - - - - - - - 990.8 990.8 -
25/12:30am 11.3 - - - - - - - - - 990.6 990.6 -
25/12:00am 11.6 - - - - - - - - - 990.2 990.2 -
 
Date/Time
EST
Temp
°C
App
Temp
°C
Dew
Point
°C
Rel
Hum
%
Delta-T
°C
Wind Press
QNH
hPa
Press
MSL
hPa
Rain since
9am
mm
Dir  Spd
km/h
Gust
km/h
Spd
kts
Gust
kts
24/11:30pm 11.4 - - - - - - - - - 989.8 989.8 -
24/11:00pm 11.5 - - - - - - - - - 989.6 989.6 -
24/10:30pm 11.7 - - - - - - - - - 989.5 989.5 -
24/10:00pm 11.9 - - - - - - - - - 989.4 989.4 -
24/09:30pm 11.9 - - - - - - - - - 989.4 989.4 -
24/09:00pm 12.0 - - - - - - - - - 989.2 989.2 -
24/08:30pm 12.2 - - - - - - - - - 989.3 989.3 -
24/08:00pm 12.4 - - - - - - - - - 989.1 989.1 -
24/07:30pm 12.4 - - - - - - - - - 988.8 988.8 -
24/07:00pm 12.6 - - - - - - - - - 988.4 988.4 -
24/06:30pm 13.1 - - - - - - - - - 988.1 988.1 -
24/06:00pm 13.2 - - - - - - - - - 987.6 987.6 -
24/05:30pm 13.6 - - - - - - - - - 987.6 987.6 -
24/05:00pm 14.0 - - - - - - - - - 987.3 987.3 -
24/04:30pm 14.6 - - - - - - - - - 986.9 986.9 -
24/04:00pm 15.0 - - - - - - - - - 986.5 986.5 -
24/03:30pm 14.3 - - - - - - - - - 986.4 986.4 -
24/03:00pm 15.6 - - - - - - - - - 986.3 986.3 -
24/02:30pm 16.0 - - - - - - - - - 986.2 986.2 -
24/02:00pm 15.6 - - - - - - - - - 986.1 986.1 -
24/01:30pm 15.3 - - - - - - - - - 986.0 986.0 -
24/01:00pm 15.4 - - - - - - - - - 986.2 986.2 -
24/12:30pm 16.8 - - - - - - - - - 986.4 986.4 -
24/12:00pm 15.9 - - - - - - - - - 986.4 986.4 -
24/11:30am 14.8 - - - - - - - - - 986.6 986.6 -
24/11:00am 15.4 - - - - - - - - - 986.6 986.6 -
24/10:30am 14.7 - - - - - - - - - 986.9 986.9 -
24/10:00am 14.5 - - - - - - - - - 987.3 987.3 -
24/09:30am 13.9 - - - - - - - - - 987.5 987.5 -
24/09:00am 13.7 - - - - - - - - - 987.5 987.5 -
24/08:30am 13.3 - - - - - - - - - 987.7 987.7 -
24/08:00am 13.0 - - - - - - - - - 987.6 987.6 -
24/07:30am 13.1 - - - - - - - - - 987.4 987.4 -
24/07:00am 13.1 - - - - - - - - - 987.0 987.0 -
24/06:30am 12.4 - - - - - - - - - 987.1 987.1 -
24/06:00am 12.4 - - - - - - - - - 986.9 986.9 -
24/05:30am 12.6 - - - - - - - - - 986.8 986.8 -
24/05:00am 13.1 - - - - - - - - - 986.6 986.6 -
24/04:30am 13.2 - - - - - - - - - 986.1 986.1 -
24/04:00am 13.2 - - - - - - - - - 985.4 985.4 -
24/03:30am 13.4 - - - - - - - - - 984.9 984.9 -
24/03:00am 13.6 - - - - - - - - - 983.9 983.9 -
24/02:30am 13.6 - - - - - - - - - 983.5 983.5 -
24/02:00am 13.6 - - - - - - - - - 984.0 984.0 -
24/01:30am 13.4 - - - - - - - - - 984.5 984.5 -
24/01:00am 13.1 - - - - - - - - - 985.2 985.2 -
24/12:30am 13.0 - - - - - - - - - 985.6 985.6 -
24/12:00am 13.2 - - - - - - - - - 986.4 986.4 -
 
Date/Time
EST
Temp
°C
App
Temp
°C
Dew
Point
°C
Rel
Hum
%
Delta-T
°C
Wind Press
QNH
hPa
Press
MSL
hPa
Rain since
9am
mm
Dir  Spd
km/h
Gust
km/h
Spd
kts
Gust
kts
23/11:30pm 13.9 - - - - - - - - - 986.0 986.0 -
23/11:00pm 13.4 - - - - - - - - - 986.1 986.1 -
23/10:30pm 12.7 - - - - - - - - - 986.2 986.2 -
23/10:00pm 13.6 - - - - - - - - - 986.0 986.0 -
23/09:30pm 13.2 - - - - - - - - - 987.2 987.2 -
23/09:00pm 13.5 - - - - - - - - - 987.9 987.9 -
23/08:30pm 14.5 - - - - - - - - - 988.5 988.5 -
23/08:00pm 15.3 - - - - - - - - - 987.1 987.1 -
23/07:30pm 14.6 - - - - - - - - - 987.3 987.3 -
23/07:00pm 13.6 - - - - - - - - - 987.9 987.9 -
23/06:30pm 13.7 - - - - - - - - - 987.9 987.9 -
23/06:00pm 15.0 - - - - - - - - - 987.5 987.5 -
23/05:30pm 15.2 - - - - - - - - - 988.7 988.7 -
23/05:00pm 16.0 - - - - - - - - - 988.9 988.9 -
23/04:30pm 15.2 - - - - - - - - - 989.3 989.3 -
23/04:00pm 16.6 - - - - - - - - - 990.1 990.1 -
23/03:30pm 17.2 - - - - - - - - - 988.8 988.8 -
23/03:00pm 15.8 - - - - - - - - - 990.1 990.1 -
23/02:55pm 16.3 - - - - - - - - - 989.8 989.8 -
23/02:30pm 16.7 - - - - - - - - - 991.8 991.8 -
23/02:00pm 16.9 - - - - - - - - - 991.4 991.4 -
23/01:30pm 17.1 - - - - - - - - - 993.0 993.0 -
23/01:00pm 16.5 - - - - - - - - - 993.1 993.1 -
23/12:30pm 14.3 - - - - - - - - - 994.3 994.3 -
23/12:00pm 15.7 - - - - - - - - - 994.5 994.5 -
23/11:30am 15.1 - - - - - - - - - 994.8 994.8 -
23/11:00am 13.8 - - - - - - - - - 996.0 996.0 -
23/10:30am 13.8 - - - - - - - - - 996.9 996.9 -
23/10:00am 12.7 - - - - - - - - - 998.3 998.3 -
23/09:30am 13.2 - - - - - - - - - 998.4 998.4 -
23/09:00am 13.2 - - - - - - - - - 997.9 997.9 -
23/08:30am 14.0 - - - - - - - - - 996.9 996.9 -
23/08:00am 13.4 - - - - - - - - - 996.1 996.1 -
23/07:50am 13.4 - - - - - - - - - 994.4 994.4 -
23/07:30am 13.2 - - - - - - - - - 996.6 996.6 -
23/07:23am 13.9 - - - - - - - - - 997.6 997.6 -
23/07:00am 13.1 - - - - - - - - - 999.6 999.6 -
23/06:44am 12.4 - - - - - - - - - 1000.5 1000.5 -
23/06:30am 11.8 - - - - - - - - - 998.5 998.5 -
23/06:00am 11.8 - - - - - - - - - 998.0 998.0 -
23/05:30am 11.2 - - - - - - - - - 998.4 998.4 -
23/05:00am 11.4 - - - - - - - - - 999.6 999.6 -
23/04:30am 12.0 - - - - - - - - - 999.8 999.8 -

Other Formats:

Comma delimited format used in spreadsheet applications
http://www.bom.gov.au/fwo/IDT60801/IDT60801.95987.axf

JavaScript Object Notation format (JSON) in row-major order
http://www.bom.gov.au/fwo/IDT60801/IDT60801.95987.json